Time;durP1;ratioP1;P1;durP2;ratioP2;P2;SDS_P1;SDS_P2;PMS_P1;PMS_P2;Temp;Humidity;BMP_temperature;BMP_pressure;BME280_temperature;BME280_humidity;BME280_pressure;Samples;Min_cycle;Max_cycle;Signal;HPM_P1;HPM_P2
2022/07/04 00:02:04;;;;;;;14.15;8.82;;;;;;;23.25;nan;100460.16;5021821;28;20760;-74
2022/07/04 00:04:29;;;;;;;17.30;9.77;;;;;;;23.26;nan;100485.13;5020038;28;20038;-73
2022/07/04 00:06:55;;;;;;;12.48;9.32;;;;;;;23.24;nan;100468.53;5019115;28;20040;-75
2022/07/04 00:09:20;;;;;;;11.45;8.60;;;;;;;23.22;nan;100492.22;5025709;28;20036;-75
2022/07/04 00:11:46;;;;;;;10.80;8.60;;;;;;;23.07;nan;100420.88;5024581;28;20046;-75
2022/07/04 00:14:11;;;;;;;12.07;9.40;;;;;;;23.08;nan;100468.13;5024556;28;20075;-75
2022/07/04 00:16:37;;;;;;;14.70;9.73;;;;;;;23.01;nan;100459.69;5025158;28;20543;-75
2022/07/04 00:19:02;;;;;;;15.93;9.70;;;;;;;22.99;nan;100478.03;5023745;28;20030;-75
2022/07/04 00:21:28;;;;;;;12.45;9.80;;;;;;;22.98;nan;100487.97;5022541;28;20060;-75
2022/07/04 00:23:53;;;;;;;14.15;9.70;;;;;;;22.97;nan;100485.56;5024681;28;20475;-75
2022/07/04 00:26:18;;;;;;;14.90;9.20;;;;;;;22.90;nan;100424.22;5022741;28;20116;-75
2022/07/04 00:28:44;;;;;;;15.05;9.13;;;;;;;22.93;nan;100480.78;5015472;28;20038;-75
2022/07/04 00:31:10;;;;;;;13.68;9.55;;;;;;;22.88;nan;100464.03;5020397;28;20114;-74
2022/07/04 00:33:35;;;;;;;16.52;9.60;;;;;;;22.86;nan;100461.63;5020113;28;20046;-75
2022/07/04 00:36:01;;;;;;;13.57;9.93;;;;;;;22.86;nan;100476.94;5028083;28;20048;-75
2022/07/04 00:38:26;;;;;;;15.35;9.65;;;;;;;22.68;nan;100439.25;5020915;28;20038;-74
2022/07/04 00:40:51;;;;;;;15.05;9.32;;;;;;;22.81;nan;100460.97;5025484;28;20029;-74
2022/07/04 00:43:25;;;;;;;12.43;8.70;;;;;;;22.79;nan;100506.91;5022184;28;20616;-74
2022/07/04 00:45:50;;;;;;;13.13;9.38;;;;;;;22.75;nan;100473.72;5024175;28;20038;-74
2022/07/04 00:48:16;;;;;;;13.60;9.57;;;;;;;;;;5022261;28;20034;-75
2022/07/04 00:50:46;;;;;;;19.13;9.98;;;;;;;;;;5020736;28;20042;-75
2022/07/04 00:53:15;;;;;;;13.18;8.95;;;;;;;22.66;nan;100465.59;5027584;28;20071;-75
2022/07/04 00:55:40;;;;;;;12.05;9.65;;;;;;;;;;5027357;28;20037;-74
2022/07/04 00:58:07;;;;;;;14.52;9.27;;;;;;;22.73;nan;100479.38;5026405;28;20034;-74
2022/07/04 01:00:32;;;;;;;14.73;9.60;;;;;;;22.69;nan;100410.50;5022958;28;20121;-74
2022/07/04 01:02:58;;;;;;;13.75;10.05;;;;;;;22.65;nan;100428.31;5024264;28;20104;-74
2022/07/04 01:05:23;;;;;;;17.98;9.63;;;;;;;22.68;nan;100494.84;5024595;28;20502;-74
2022/07/04 01:07:49;;;;;;;19.13;10.00;;;;;;;22.65;nan;100460.53;5025075;28;20061;-75
2022/07/04 01:10:15;;;;;;;12.80;9.60;;;;;;;;;;5024607;28;20092;-74
2022/07/04 01:12:40;;;;;;;17.87;9.93;;;;;;;22.57;nan;100482.72;5022989;28;20045;-75
2022/07/04 01:15:06;;;;;;;16.10;10.35;;;;;;;;;;5021275;28;20807;-75
2022/07/04 01:17:32;;;;;;;16.23;10.10;;;;;;;22.56;nan;100444.38;5025793;28;20427;-69
2022/07/04 01:19:58;;;;;;;18.40;9.88;;;;;;;22.51;nan;100516.94;5023163;28;20029;-75
2022/07/04 01:22:23;;;;;;;15.43;9.98;;;;;;;22.47;nan;100443.50;5024299;28;20060;-75
2022/07/04 01:24:49;;;;;;;18.63;9.52;;;;;;;22.37;nan;100441.06;5030106;28;20029;-76
2022/07/04 01:27:16;;;;;;;19.17;10.23;;;;;;;22.33;nan;100394.47;5024509;28;20124;-76
2022/07/04 01:29:41;;;;;;;14.35;9.23;;;;;;;22.23;nan;100433.03;5024418;28;20029;-76
2022/07/04 01:32:08;;;;;;;13.32;9.68;;;;;;;22.16;nan;100470.97;5025673;28;20429;-76
2022/07/04 01:34:34;;;;;;;14.73;10.15;;;;;;;22.12;nan;100434.31;5026256;28;20500;-76
2022/07/04 01:37:01;;;;;;;19.40;10.50;;;;;;;22.16;nan;100464.81;5026314;28;20501;-75
2022/07/04 01:39:29;;;;;;;15.93;10.18;;;;;;;22.03;nan;100434.25;5028339;28;20025;-75
2022/07/04 01:41:55;;;;;;;16.80;9.88;;;;;;;22.03;nan;100458.41;5030039;28;20033;-74
2022/07/04 01:44:21;;;;;;;15.90;9.85;;;;;;;22.07;nan;100449.41;5032074;28;20490;-75
2022/07/04 01:46:47;;;;;;;16.02;10.25;;;;;;;22.00;nan;100442.88;5029179;28;20116;-75
2022/07/04 01:49:13;;;;;;;22.33;10.77;;;;;;;22.09;nan;100427.69;5031146;28;20071;-75
2022/07/04 01:51:49;;;;;;;13.88;10.05;;;;;;;22.07;nan;100449.41;5030347;28;20033;-74
2022/07/04 01:54:15;;;;;;;18.45;11.00;;;;;;;21.99;nan;100420.66;5024000;28;20152;-74
2022/07/04 01:56:41;;;;;;;15.38;10.10;;;;;;;21.97;nan;100419.34;5025101;28;20866;-74
2022/07/04 01:59:07;;;;;;;18.23;10.40;;;;;;;22.01;nan;100425.72;5029882;28;20034;-73
2022/07/04 02:01:33;;;;;;;13.40;9.68;;;;;;;22.01;nan;100417.69;5023739;28;20050;-74
2022/07/04 02:04:00;;;;;;;17.42;10.70;;;;;;;21.97;nan;100438.91;5025187;28;20037;-74
2022/07/04 02:06:26;;;;;;;17.20;10.27;;;;;;;22.03;nan;100442.31;5027886;28;20083;-74
2022/07/04 02:14:22;;;;;;;17.27;11.25;;;;;;;21.83;nan;100444.28;5027902;28;20151;-74
2022/07/04 02:16:48;;;;;;;12.75;10.18;;;;;;;21.83;nan;100452.34;5028277;28;20037;-75
2022/07/04 02:19:13;;;;;;;19.65;10.70;;;;;;;21.80;nan;100460.19;5026967;28;20470;-74
2022/07/04 02:21:39;;;;;;;17.25;10.70;;;;;;;21.78;nan;100460.47;5028204;28;20459;-75
2022/07/04 02:24:04;;;;;;;14.10;10.30;;;;;;;21.76;nan;100464.56;5030878;28;20026;-75
2022/07/04 02:26:30;;;;;;;16.98;10.60;;;;;;;21.73;nan;100457.13;5025653;28;20491;-75
2022/07/04 02:28:55;;;;;;;19.92;11.05;;;;;;;21.78;nan;100473.88;5027295;28;20041;-75
2022/07/04 02:31:21;;;;;;;13.38;10.23;;;;;;;21.78;nan;100432.88;5025734;28;20053;-75
2022/07/04 02:33:46;;;;;;;16.80;10.82;;;;;;;21.83;nan;100471.09;5024318;28;20076;-75
2022/07/04 02:36:11;;;;;;;14.50;10.43;;;;;;;21.78;nan;100459.69;5025511;28;20026;-75
2022/07/04 02:38:37;;;;;;;15.60;10.95;;;;;;;21.75;nan;100481.75;5025581;28;20073;-74
2022/07/04 02:41:02;;;;;;;14.10;11.02;;;;;;;21.74;nan;100482.81;5019136;28;20977;-75
2022/07/04 02:43:28;;;;;;;18.70;11.00;;;;;;;21.70;nan;100504.06;5029657;28;20116;-75
2022/07/04 02:45:53;;;;;;;16.27;10.85;;;;;;;21.65;nan;100485.41;5020667;28;20029;-75
2022/07/04 02:48:19;;;;;;;20.25;11.32;;;;;;;21.64;nan;100548.13;5020651;28;20033;-75
2022/07/04 02:50:44;;;;;;;17.55;11.20;;;;;;;21.56;nan;100471.88;5028858;28;20061;-75
2022/07/04 02:53:10;;;;;;;15.35;11.15;;;;;;;21.42;nan;100500.56;5026287;28;20071;-75
2022/07/04 02:55:35;;;;;;;14.23;10.38;;;;;;;21.46;nan;100514.94;5026639;28;20032;-75
2022/07/04 02:58:00;;;;;;;19.58;12.07;;;;;;;21.37;nan;100514.78;5018014;28;20029;-74
2022/07/04 03:00:26;;;;;;;16.15;10.05;;;;;;;21.31;nan;100491.88;5030978;28;20076;-74
2022/07/04 03:02:53;;;;;;;21.48;11.02;;;;;;;21.33;nan;100495.03;5022285;28;20033;-74
2022/07/04 03:05:19;;;;;;;16.48;10.93;;;;;;;21.28;nan;100456.84;5030567;28;20033;-75
2022/07/04 03:07:45;;;;;;;19.67;11.80;;;;;;;21.25;nan;100495.72;5021173;28;20026;-75
2022/07/04 03:10:10;;;;;;;16.73;11.05;;;;;;;21.26;nan;100491.94;5027891;28;20488;-75
2022/07/04 03:12:35;;;;;;;14.48;10.75;;;;;;;21.24;nan;100470.03;5023677;28;20041;-75
2022/07/04 03:15:01;;;;;;;18.48;11.30;;;;;;;21.20;nan;100498.50;5024885;28;20041;-75
2022/07/04 03:17:26;;;;;;;19.10;11.38;;;;;;;21.20;nan;100493.13;5027129;28;20479;-74
2022/07/04 03:19:52;;;;;;;17.30;11.40;;;;;;;21.06;nan;100503.78;5026029;28;20176;-74
2022/07/04 03:22:17;;;;;;;16.77;11.82;;;;;;;21.11;nan;100500.25;5023920;28;20032;-74
2022/07/04 03:24:43;;;;;;;16.10;11.40;;;;;;;21.13;nan;100504.22;5029233;28;20118;-75
2022/07/04 03:27:09;;;;;;;16.17;11.45;;;;;;;21.11;nan;100535.84;5022004;28;20768;-75
2022/07/04 03:29:35;;;;;;;19.02;10.95;;;;;;;21.13;nan;100563.13;5023444;28;20041;-75
2022/07/04 03:32:00;;;;;;;19.00;11.70;;;;;;;21.11;nan;100546.56;5024183;28;20040;-75
2022/07/04 03:34:26;;;;;;;19.27;11.68;;;;;;;21.06;nan;100506.47;5031308;28;20033;-74
2022/07/04 03:36:51;;;;;;;16.33;11.60;;;;;;;21.10;nan;100542.28;5023517;28;20099;-75
2022/07/04 03:39:17;;;;;;;18.13;12.23;;;;;;;21.13;nan;100500.75;5028799;28;20084;-73
2022/07/04 03:41:42;;;;;;;20.35;11.63;;;;;;;21.16;nan;100435.88;5024428;28;20034;-74
2022/07/04 03:44:07;;;;;;;22.45;12.23;;;;;;;21.15;nan;100552.13;5027513;28;20072;-74
2022/07/04 03:46:33;;;;;;;18.73;11.93;;;;;;;21.24;nan;100502.97;5022228;28;20498;-74
2022/07/04 03:48:59;;;;;;;18.02;11.93;;;;;;;21.29;nan;100463.81;5024085;28;20044;-75
2022/07/04 03:51:24;;;;;;;14.85;11.00;;;;;;;;;;5026356;28;20033;-75
2022/07/04 03:53:49;;;;;;;17.88;12.05;;;;;;;21.36;nan;100513.22;5030423;28;20037;-75
2022/07/04 03:56:15;;;;;;;19.52;12.00;;;;;;;21.38;nan;100494.16;5021073;28;20120;-75
2022/07/04 03:58:42;;;;;;;19.58;11.68;;;;;;;21.43;nan;100504.84;5024137;28;20082;-75
2022/07/04 04:01:08;;;;;;;23.20;12.18;;;;;;;21.42;nan;100504.03;5025350;28;20041;-75
2022/07/04 04:06:18;;;;;;;22.52;11.90;;;;;;;21.58;nan;100507.22;5025284;28;20037;-74
2022/07/04 04:08:43;;;;;;;21.92;12.20;;;;;;;21.57;nan;100512.88;5028840;28;20483;-75
2022/07/04 04:11:09;;;;;;;17.95;11.57;;;;;;;21.53;nan;100515.38;5027127;28;20053;-75
2022/07/04 04:13:34;;;;;;;15.90;11.63;;;;;;;;;;5026216;28;20041;-75
2022/07/04 04:16:00;;;;;;;16.13;11.50;;;;;;;21.63;nan;100498.31;5024919;28;20044;-75
2022/07/04 04:18:25;;;;;;;22.95;11.85;;;;;;;21.68;nan;100506.25;5022789;28;20033;-75
2022/07/04 04:20:50;;;;;;;20.45;11.57;;;;;;;21.72;nan;100488.50;5025886;28;20375;-75
2022/07/04 04:23:16;;;;;;;25.38;12.43;;;;;;;21.84;nan;100504.09;5026531;28;20025;-76
2022/07/04 04:25:41;;;;;;;23.67;11.38;;;;;;;21.85;nan;100511.03;5023357;28;20395;-76
2022/07/04 04:28:07;;;;;;;18.88;11.75;;;;;;;21.95;nan;100508.13;5010928;28;20038;-75
2022/07/04 04:30:33;;;;;;;21.45;11.38;;;;;;;21.99;nan;100454.72;5025405;28;20503;-75
2022/07/04 04:32:58;;;;;;;15.82;11.30;;;;;;;21.97;nan;100494.44;5026787;28;20054;-69
2022/07/04 04:35:24;;;;;;;19.02;12.32;;;;;;;22.07;nan;100470.88;5019379;28;20046;-68
2022/07/04 04:37:49;;;;;;;21.77;12.15;;;;;;;22.18;nan;100450.00;5022925;28;20034;-75
2022/07/04 04:40:15;;;;;;;18.13;12.32;;;;;;;22.27;nan;100495.75;5023666;28;20112;-74
2022/07/04 04:42:40;;;;;;;26.13;11.82;;;;;;;22.33;nan;100499.09;5026132;28;20037;-75
2022/07/04 04:45:06;;;;;;;16.35;11.27;;;;;;;22.35;nan;100486.97;5022483;28;20037;-75
2022/07/04 04:47:32;;;;;;;23.13;13.07;;;;;;;22.43;nan;100571.31;5012012;28;20033;-75
2022/07/04 04:49:57;;;;;;;23.45;11.63;;;;;;;22.53;nan;100461.09;5024263;28;20037;-74
2022/07/04 04:52:23;;;;;;;16.20;10.85;;;;;;;22.66;nan;100515.81;5022389;28;20033;-75
2022/07/04 04:54:48;;;;;;;18.65;12.05;;;;;;;22.75;nan;100527.41;5020379;28;20484;-74
2022/07/04 04:57:14;;;;;;;18.67;11.25;;;;;;;22.84;nan;100527.47;5020861;28;20452;-75
2022/07/04 04:59:39;;;;;;;21.17;11.05;;;;;;;22.91;nan;100611.91;5023907;28;20069;-74
2022/07/04 05:02:05;;;;;;;18.15;11.85;;;;;;;22.97;nan;100548.13;5022482;28;20026;-75
2022/07/04 05:04:30;;;;;;;16.98;11.05;;;;;;;22.99;nan;100529.06;5033335;28;20076;-75
2022/07/04 05:06:56;;;;;;;16.98;10.73;;;;;;;23.14;nan;100539.44;5024733;28;20044;-75
2022/07/04 05:09:22;;;;;;;22.20;10.80;;;;;;;23.19;nan;100568.06;5024113;28;20037;-75
2022/07/04 05:11:48;;;;;;;19.27;11.27;;;;;;;23.39;nan;100529.94;5027561;28;20123;-75
2022/07/04 05:14:14;;;;;;;17.63;10.35;;;;;;;23.38;nan;100516.81;5026353;28;20044;-76
2022/07/04 05:16:40;;;;;;;18.50;10.95;;;;;;;23.45;nan;100539.47;5024440;28;20485;-76
2022/07/04 05:19:05;;;;;;;22.75;11.77;;;;;;;23.47;nan;100529.19;5032881;28;20041;-75
2022/07/04 05:21:31;;;;;;;18.15;11.43;;;;;;;23.46;nan;100530.28;5024985;28;20498;-76
2022/07/04 05:23:56;;;;;;;30.25;11.63;;;;;;;23.64;nan;100543.84;5030232;28;20107;-75
2022/07/04 05:26:23;;;;;;;18.75;10.73;;;;;;;23.76;nan;100554.81;5016910;28;20034;-75
2022/07/04 05:28:48;;;;;;;20.30;11.35;;;;;;;23.90;nan;100554.72;5031508;28;20037;-68
2022/07/04 05:31:14;;;;;;;23.58;12.00;;;;;;;23.95;nan;100541.94;5024618;28;20045;-68
2022/07/04 05:33:39;;;;;;;27.75;12.07;;;;;;;23.99;nan;100556.34;5021531;28;20467;-68
2022/07/04 05:36:05;;;;;;;20.15;10.75;;;;;;;24.02;nan;100530.72;5030381;28;20030;-76
2022/07/04 05:38:31;;;;;;;19.63;11.45;;;;;;;24.12;nan;100502.75;5027767;28;20476;-77
2022/07/04 05:40:56;;;;;;;21.23;11.15;;;;;;;24.13;nan;100528.53;5029670;28;20048;-76
2022/07/04 05:43:22;;;;;;;23.05;11.05;;;;;;;24.32;nan;100550.56;5031537;28;20088;-76
2022/07/04 05:45:50;;;;;;;19.20;10.65;;;;;;;24.38;nan;100545.84;5030273;28;21423;-76
2022/07/04 05:48:16;;;;;;;20.77;10.70;;;;;;;24.46;nan;100538.88;5032114;28;20037;-77
2022/07/04 05:50:42;;;;;;;18.30;10.73;;;;;;;24.53;nan;100525.78;5031391;28;20369;-76
2022/07/04 05:53:07;;;;;;;21.40;10.18;;;;;;;24.60;nan;100499.97;5028721;28;20051;-76
2022/07/04 05:55:34;;;;;;;18.60;11.32;;;;;;;24.74;nan;100540.22;5030569;28;20037;-77
2022/07/04 05:57:59;;;;;;;24.33;10.73;;;;;;;24.88;nan;100590.41;5031507;28;20081;-76
2022/07/04 06:00:25;;;;;;;28.90;11.23;;;;;;;24.97;nan;100575.88;5024321;28;20030;-76
2022/07/04 06:02:50;;;;;;;25.73;11.25;;;;;;;25.10;nan;100560.63;5033921;28;20040;-77
2022/07/04 06:05:16;;;;;;;16.30;10.75;;;;;;;25.24;nan;100536.22;5038024;28;20033;-75
2022/07/04 06:07:41;;;;;;;14.75;10.50;;;;;;;25.29;nan;100532.59;5027590;28;20041;-77
2022/07/04 06:10:08;;;;;;;18.52;10.70;;;;;;;25.39;nan;100534.94;5030067;28;20112;-77
2022/07/04 06:12:34;;;;;;;14.57;9.88;;;;;;;25.48;nan;100535.69;5023243;28;20046;-76
2022/07/04 06:14:59;;;;;;;18.63;11.63;;;;;;;25.64;nan;100536.75;5033675;28;20041;-75
2022/07/04 06:17:25;;;;;;;15.90;10.60;;;;;;;25.73;nan;100535.91;5027378;28;20431;-75
2022/07/04 06:19:50;;;;;;;19.63;11.23;;;;;;;25.79;nan;100537.34;5030377;28;20033;-76
2022/07/04 06:22:16;;;;;;;17.63;10.40;;;;;;;25.86;nan;100518.78;5030744;28;20411;-75
2022/07/04 06:24:41;;;;;;;19.65;10.38;;;;;;;25.90;nan;100522.38;5029479;28;20061;-76
2022/07/04 06:27:07;;;;;;;21.25;10.88;;;;;;;25.96;nan;100585.06;5032177;28;20463;-76
2022/07/04 06:29:32;;;;;;;19.85;10.20;;;;;;;26.06;nan;100544.22;5027350;28;20400;-68
2022/07/04 06:31:58;;;;;;;16.70;10.52;;;;;;;26.19;nan;100515.38;5028389;28;20049;-68
2022/07/04 06:37:08;;;;;;;18.85;10.75;;;;;;;26.55;nan;100527.56;5025792;28;20033;-68
2022/07/04 06:39:33;;;;;;;18.10;10.55;;;;;;;26.53;nan;100576.50;5021289;28;20042;-67
2022/07/04 06:41:58;;;;;;;14.90;10.93;;;;;;;26.59;nan;100529.28;5021648;28;20029;-68
2022/07/04 06:44:24;;;;;;;19.38;10.95;;;;;;;26.75;nan;100540.28;5028791;28;20033;-68
2022/07/04 06:46:50;;;;;;;16.30;10.40;;;;;;;26.81;nan;100517.34;5025787;28;20072;-68
2022/07/04 06:49:16;;;;;;;18.58;10.93;;;;;;;26.92;nan;100528.53;5028751;28;20033;-69
2022/07/04 06:51:41;;;;;;;22.15;11.93;;;;;;;26.95;nan;100523.25;5027574;28;20395;-68
2022/07/04 06:54:07;;;;;;;15.50;10.98;;;;;;;27.07;nan;100502.78;5025808;28;20460;-76
2022/07/04 06:56:32;;;;;;;18.90;11.45;;;;;;;27.24;nan;100502.63;5036317;28;20037;-77
2022/07/04 06:58:58;;;;;;;21.63;10.98;;;;;;;27.26;nan;100529.34;5033984;28;20445;-76
2022/07/04 07:01:23;;;;;;;19.63;11.73;;;;;;;27.40;nan;100518.22;5027126;28;20049;-74
2022/07/04 07:03:49;;;;;;;21.52;12.10;;;;;;;27.47;nan;100546.28;5030108;28;20064;-75
2022/07/04 07:06:14;;;;;;;19.50;10.85;;;;;;;27.54;nan;100510.56;5029080;28;20503;-67
2022/07/04 07:08:40;;;;;;;18.02;11.60;;;;;;;27.57;nan;100501.78;5028274;28;20042;-75
2022/07/04 07:11:12;;;;;;;18.85;10.55;;;;;;;27.66;nan;100494.34;5025143;28;20100;-68
2022/07/04 07:13:43;;;;;;;19.38;10.50;;;;;;;27.63;nan;100537.50;5022573;28;20030;-68
2022/07/04 07:16:08;;;;;;;15.88;9.90;;;;;;;27.85;nan;100536.34;5025116;28;20034;-69
2022/07/04 07:18:34;;;;;;;21.00;10.85;;;;;;;27.87;nan;100561.13;5029403;28;20459;-69
2022/07/04 07:20:59;;;;;;;18.70;10.52;;;;;;;27.95;nan;100539.34;5021599;28;20665;-68
2022/07/04 07:23:25;;;;;;;23.30;10.70;;;;;;;27.92;nan;100501.38;5023945;28;20418;-76
2022/07/04 07:25:50;;;;;;;18.30;9.85;;;;;;;28.10;nan;100572.28;5027778;28;20037;-76
2022/07/04 07:28:16;;;;;;;16.17;9.45;;;;;;;28.20;nan;100534.69;5024444;28;20096;-77
2022/07/04 07:30:41;;;;;;;13.85;9.23;;;;;;;28.26;nan;100542.63;5016976;28;20095;-77
2022/07/04 07:33:07;;;;;;;13.70;9.60;;;;;;;28.32;nan;100531.19;5018905;28;20037;-74
2022/07/04 07:35:32;;;;;;;20.38;9.40;;;;;;;28.44;nan;100516.81;5023799;28;20715;-74
2022/07/04 07:37:58;;;;;;;11.73;8.63;;;;;;;28.43;nan;100529.59;5026095;28;20037;-75
2022/07/04 07:40:23;;;;;;;16.42;10.00;;;;;;;28.51;nan;100529.81;5028632;28;20529;-75
2022/07/04 07:42:49;;;;;;;12.77;7.50;;;;;;;28.57;nan;100548.22;5026365;28;20487;-75
2022/07/04 07:45:15;;;;;;;15.13;8.57;;;;;;;28.70;nan;100595.03;5029223;28;20048;-70
2022/07/04 07:47:40;;;;;;;13.82;7.97;;;;;;;28.83;nan;100547.00;5031860;28;20033;-77
2022/07/04 07:50:06;;;;;;;17.20;8.82;;;;;;;28.87;nan;100512.63;5029614;28;20040;-77
2022/07/04 07:52:32;;;;;;;12.52;8.68;;;;;;;28.86;nan;100549.03;5027395;28;20030;-70
2022/07/04 07:54:57;;;;;;;13.70;9.38;;;;;;;28.92;nan;100509.66;5027797;28;20033;-69
2022/07/04 07:57:23;;;;;;;17.25;9.80;;;;;;;28.97;nan;100497.78;5024838;28;20397;-76
2022/07/04 07:59:48;;;;;;;14.93;9.13;;;;;;;29.01;nan;100540.13;5026676;28;20029;-70
2022/07/04 08:02:14;;;;;;;16.13;9.23;;;;;;;29.18;nan;100516.56;5025528;28;20109;-68
2022/07/04 08:04:40;;;;;;;13.63;9.05;;;;;;;29.24;nan;100526.03;5025437;28;20037;-74
2022/07/04 08:07:11;;;;;;;15.45;9.15;;;;;;;29.35;nan;100521.66;5028271;28;20029;-68
2022/07/04 08:09:38;;;;;;;15.20;8.10;;;;;;;29.44;nan;100532.34;5025625;28;20033;-66
2022/07/04 08:12:06;;;;;;;16.13;8.73;;;;;;;29.46;nan;100530.84;5012391;28;20053;-73
2022/07/04 08:14:33;;;;;;;22.27;8.93;;;;;;;29.50;nan;100538.28;5026688;28;20038;-67
2022/07/04 08:16:59;;;;;;;14.23;7.45;;;;;;;29.66;nan;100512.75;5030069;28;20030;-74
2022/07/04 08:19:25;;;;;;;12.82;8.05;;;;;;;29.74;nan;100534.63;5021601;28;20057;-74
2022/07/04 08:21:52;;;;;;;16.30;7.05;;;;;;;29.80;nan;100535.97;5025820;28;20033;-67
2022/07/04 08:24:18;;;;;;;10.25;7.50;;;;;;;29.90;nan;100506.31;5024324;28;20017;-66
2022/07/04 08:26:43;;;;;;;17.70;7.70;;;;;;;29.94;nan;100522.72;5028339;28;20036;-67
2022/07/04 08:29:19;;;;;;;15.00;7.40;;;;;;;30.15;nan;100536.00;5022070;28;20061;-74
2022/07/04 08:31:45;;;;;;;14.20;6.72;;;;;;;30.13;nan;100521.97;5025268;28;20026;-74
2022/07/04 08:34:11;;;;;;;12.50;6.80;;;;;;;30.22;nan;100502.78;5028695;28;20610;-72
2022/07/04 08:36:36;;;;;;;13.13;6.78;;;;;;;30.35;nan;100531.41;5023141;28;20033;-67
2022/07/04 08:39:02;;;;;;;8.52;6.30;;;;;;;30.50;nan;100527.03;5025241;28;20041;-67
2022/07/04 08:41:31;;;;;;;14.55;6.60;;;;;;;30.53;nan;100553.53;5025521;28;20028;-73
2022/07/04 08:43:56;;;;;;;11.73;6.75;;;;;;;30.58;nan;100508.97;5023763;28;20029;-71
2022/07/04 08:46:25;;;;;;;9.13;6.40;;;;;;;30.67;nan;100528.53;5045880;28;20037;-73
2022/07/04 08:48:52;;;;;;;11.68;6.15;;;;;;;30.61;nan;100514.47;5025971;28;20610;-73
2022/07/04 08:51:52;;;;;;;13.50;5.90;;;;;;;30.69;nan;100537.13;5025302;28;20053;-67
2022/07/04 08:59:49;;;;;;;9.07;5.53;;;;;;;30.87;nan;100557.34;5024972;28;20403;-73
2022/07/04 09:02:18;;;;;;;14.85;6.18;;;;;;;31.00;nan;100566.13;5033273;28;20445;-73
2022/07/04 09:04:43;;;;;;;9.68;4.97;;;;;;;31.03;nan;100493.91;5029074;28;20045;-72
2022/07/04 09:07:12;;;;;;;11.77;6.43;;;;;;;31.11;nan;100496.38;5020994;28;20109;-73
2022/07/04 09:09:38;;;;;;;8.77;5.70;;;;;;;31.23;nan;100505.53;5030275;28;20100;-72
2022/07/04 09:12:04;;;;;;;10.27;5.38;;;;;;;31.25;nan;100490.41;5027154;28;20037;-73
2022/07/04 09:14:29;;;;;;;11.23;5.50;;;;;;;31.42;nan;100504.72;5030723;28;20372;-72
2022/07/04 09:16:56;;;;;;;11.85;5.57;;;;;;;31.49;nan;100478.38;5028039;28;20038;-72
2022/07/04 09:19:23;;;;;;;7.07;4.90;;;;;;;31.47;nan;100499.75;5023724;28;20022;-72
2022/07/04 09:21:48;;;;;;;7.43;5.22;;;;;;;31.44;nan;100495.03;5031050;28;20396;-73
2022/07/04 09:24:15;;;;;;;10.48;5.07;;;;;;;31.43;nan;100479.06;5030656;28;20033;-73
2022/07/04 09:26:49;;;;;;;9.15;4.70;;;;;;;31.51;nan;100499.78;5028631;28;20047;-73
2022/07/04 09:29:14;;;;;;;7.53;4.30;;;;;;;31.56;nan;100483.94;5028077;28;20045;-73
2022/07/04 09:31:40;;;;;;;10.50;4.38;;;;;;;31.60;nan;100488.66;5028542;28;20079;-71
2022/07/04 09:34:07;;;;;;;10.85;4.22;;;;;;;31.65;nan;100483.66;5023659;28;20113;-72
2022/07/04 09:36:43;;;;;;;7.90;3.35;;;;;;;31.79;nan;100497.50;5020754;28;20061;-72
2022/07/04 09:39:17;;;;;;;10.55;3.50;;;;;;;31.92;nan;100511.69;5023519;28;20396;-72
2022/07/04 09:41:55;;;;;;;6.50;3.60;;;;;;;32.04;nan;100501.75;5021384;28;20045;-71
2022/07/04 09:44:22;;;;;;;6.10;3.25;;;;;;;32.05;nan;100474.16;5028264;28;20052;-72
2022/07/04 09:46:48;;;;;;;10.65;3.50;;;;;;;32.06;nan;100480.38;5016421;28;20662;-71
2022/07/04 09:49:13;;;;;;;8.00;3.30;;;;;;;32.14;nan;100501.13;5022350;28;20168;-71
2022/07/04 09:51:48;;;;;;;8.57;3.35;;;;;;;32.21;nan;100476.69;5023990;28;20040;-72
2022/07/04 09:54:33;;;;;;;7.07;3.30;;;;;;;32.31;nan;100491.59;5026114;28;20394;-72
2022/07/04 09:57:01;;;;;;;6.80;2.92;;;;;;;32.36;nan;100461.28;5026988;28;20034;-71
2022/07/04 09:59:27;;;;;;;5.03;3.20;;;;;;;32.44;nan;100482.00;5019047;28;20044;-71
2022/07/04 10:02:13;;;;;;;8.48;4.10;;;;;;;32.41;nan;100469.91;5023057;28;20044;-72
2022/07/04 10:04:51;;;;;;;7.28;3.30;;;;;;;32.52;nan;100461.13;5026419;28;20399;-69
2022/07/04 10:07:31;;;;;;;5.27;3.53;;;;;;;32.57;nan;100463.50;5024463;28;20404;-69
2022/07/04 10:09:56;;;;;;;7.10;3.50;;;;;;;32.68;nan;100464.38;5026369;28;20091;-71
2022/07/04 10:12:28;;;;;;;4.38;3.55;;;;;;;32.77;nan;100475.78;5029392;28;20466;-72
2022/07/04 10:14:55;;;;;;;10.90;4.15;;;;;;;32.90;nan;100472.78;5026416;28;20053;-72
2022/07/04 10:17:21;;;;;;;8.10;3.70;;;;;;;32.83;nan;100474.31;5032688;28;20037;-71
2022/07/04 10:19:47;;;;;;;7.28;3.55;;;;;;;32.84;nan;100466.91;5033293;28;20033;-71
2022/07/04 10:22:13;;;;;;;11.00;3.95;;;;;;;32.95;nan;100465.06;5021141;28;20506;-70
2022/07/04 10:24:39;;;;;;;10.70;4.03;;;;;;;33.03;nan;100479.53;5029621;28;20432;-73
2022/07/04 10:27:04;;;;;;;5.15;3.70;;;;;;;33.11;nan;100456.63;5020136;28;20048;-72
2022/07/04 10:29:30;;;;;;;8.00;3.20;;;;;;;33.13;nan;100481.59;5024553;28;20452;-72
2022/07/04 10:31:56;;;;;;;6.30;2.97;;;;;;;33.12;nan;100441.06;5023398;28;20230;-70
2022/07/04 10:34:22;;;;;;;3.63;2.88;;;;;;;33.05;nan;100445.31;5027616;28;20037;-71
2022/07/04 10:36:54;;;;;;;4.43;3.00;;;;;;;33.17;nan;100435.25;5025963;28;20033;-74
2022/07/04 10:39:23;;;;;;;5.97;3.00;;;;;;;33.16;nan;100422.75;5028006;28;20098;-71
2022/07/04 10:41:59;;;;;;;5.75;2.28;;;;;;;33.25;nan;100434.16;5027733;28;20116;-70
2022/07/04 10:44:26;;;;;;;6.57;2.70;;;;;;;33.40;nan;100359.41;5030564;28;20030;-71
2022/07/04 10:46:56;;;;;;;6.50;2.90;;;;;;;33.45;nan;100429.19;5030822;28;20117;-73
2022/07/04 10:49:24;;;;;;;4.88;2.67;;;;;;;33.55;nan;100422.28;5026879;28;20139;-71
2022/07/04 10:52:24;;;;;;;8.25;2.90;;;;;;;33.65;nan;100413.38;5028329;28;20079;-74
2022/07/04 10:54:49;;;;;;;5.15;2.65;;;;;;;33.65;nan;100418.84;5015912;28;20038;-71
2022/07/04 10:57:16;;;;;;;10.70;2.53;;;;;;;33.61;nan;100416.06;5027623;28;20395;-71
2022/07/04 11:00:05;;;;;;;3.40;2.85;;;;;;;33.67;nan;100398.19;5017596;28;20034;-70
2022/07/04 11:02:34;;;;;;;5.38;2.80;;;;;;;33.71;nan;100405.59;5007761;28;20038;-71
2022/07/04 11:05:09;;;;;;;4.70;2.25;;;;;;;33.74;nan;100419.28;5026850;28;20030;-75
2022/07/04 11:07:35;;;;;;;7.00;2.60;;;;;;;33.81;nan;100413.06;5023510;28;20507;-70
2022/07/04 11:10:12;;;;;;;6.18;2.70;;;;;;;33.83;nan;100418.91;5029975;28;20045;-71
2022/07/04 11:12:53;;;;;;;4.03;2.40;;;;;;;33.82;nan;100412.69;5027598;28;20049;-71
2022/07/04 11:15:28;;;;;;;3.70;2.55;;;;;;;33.88;nan;100421.28;5020380;28;20902;-70
2022/07/04 11:18:02;;;;;;;3.70;2.00;;;;;;;33.93;nan;100415.47;5024048;28;20038;-75
2022/07/04 11:20:34;;;;;;;5.22;2.05;;;;;;;34.05;nan;100398.72;5022244;28;20029;-75
2022/07/04 11:23:12;;;;;;;6.55;2.40;;;;;;;34.08;nan;100408.09;5022842;28;20029;-75
2022/07/04 11:25:40;;;;;;;6.40;2.20;;;;;;;34.18;nan;100384.75;5022232;28;20053;-70
2022/07/04 11:28:25;;;;;;;3.42;2.15;;;;;;;34.30;nan;100398.03;5020498;28;20549;-70
2022/07/04 11:30:52;;;;;;;3.40;1.98;;;;;;;34.34;nan;100419.91;5023792;28;20045;-75
2022/07/04 11:33:23;;;;;;;4.60;1.80;;;;;;;34.31;nan;100373.06;5024544;28;20036;-75
2022/07/04 11:36:08;;;;;;;5.15;2.03;;;;;;;34.38;nan;100366.03;5024914;28;20029;-70
2022/07/04 11:38:55;;;;;;;5.35;2.22;;;;;;;34.40;nan;100378.13;5023748;28;20931;-71
2022/07/04 11:47:12;;;;;;;3.15;2.10;;;;;;;34.58;nan;100380.91;5021784;28;20050;-75
2022/07/04 11:49:58;;;;;;;4.10;2.00;;;;;;;34.69;nan;100376.25;5022237;28;20052;-74
2022/07/04 11:52:25;;;;;;;3.60;1.90;;;;;;;34.75;nan;100381.34;5024586;28;20063;-68
2022/07/04 11:54:52;;;;;;;3.90;1.80;;;;;;;34.78;nan;100351.25;5022370;28;20041;-67
2022/07/04 11:57:18;;;;;;;5.22;2.47;;;;;;;34.76;nan;100363.75;5025002;28;20475;-74